Time;durP1;ratioP1;P1;durP2;ratioP2;P2;SDS_P1;SDS_P2;PMS_P1;PMS_P2;Temp;Humidity;BMP_temperature;BMP_pressure;BME280_temperature;BME280_humidity;BME280_pressure;Samples;Min_cycle;Max_cycle;Signal;HPM_P1;HPM_P2
2023/04/03 00:01:27;;;;;;;7.75;4.60;;;3.20;99.90;;;;;;5084447;28;20494;-68
2023/04/03 00:03:53;;;;;;;8.05;4.10;;;3.10;99.90;;;;;;5085366;28;20020;-68
2023/04/03 00:06:18;;;;;;;8.77;4.20;;;3.10;99.90;;;;;;5084455;28;20123;-68
2023/04/03 00:08:44;;;;;;;9.32;4.30;;;3.20;99.90;;;;;;5085477;28;20107;-69
2023/04/03 00:11:10;;;;;;;10.75;4.15;;;3.20;99.90;;;;;;5086985;28;20042;-68
2023/04/03 00:13:36;;;;;;;6.90;3.70;;;3.20;99.90;;;;;;5084622;28;20028;-69
2023/04/03 00:16:03;;;;;;;10.70;4.38;;;3.20;99.90;;;;;;5085270;28;20016;-68
2023/04/03 00:18:29;;;;;;;8.82;4.20;;;3.10;99.90;;;;;;5071636;28;20086;-69
2023/04/03 00:20:55;;;;;;;8.25;4.03;;;3.20;99.90;;;;;;5085468;28;20818;-68
2023/04/03 00:23:20;;;;;;;9.15;4.25;;;3.10;99.90;;;;;;5086729;28;20034;-69
2023/04/03 00:25:46;;;;;;;8.43;3.45;;;3.20;99.90;;;;;;5083486;28;20423;-69
2023/04/03 00:28:12;;;;;;;6.70;3.60;;;3.10;99.90;;;;;;5091118;28;20126;-69
2023/04/03 00:30:37;;;;;;;8.77;4.20;;;3.10;99.90;;;;;;5088662;28;20491;-70
2023/04/03 00:33:03;;;;;;;10.35;4.43;;;3.10;99.90;;;;;;5089300;28;20032;-67
2023/04/03 00:35:29;;;;;;;13.05;4.47;;;3.10;99.90;;;;;;5069259;28;20032;-70
2023/04/03 00:37:56;;;;;;;11.50;5.60;;;3.10;99.90;;;;;;5081499;28;20100;-67
2023/04/03 00:40:23;;;;;;;7.07;4.10;;;3.10;99.90;;;;;;5091242;28;20456;-69
2023/04/03 00:42:54;;;;;;;8.15;4.05;;;3.10;99.90;;;;;;5088786;28;20036;-68
2023/04/03 00:45:39;;;;;;;7.75;4.00;;;3.00;99.90;;;;;;5089202;28;20072;-69
2023/04/03 00:48:09;;;;;;;11.63;4.22;;;3.00;99.90;;;;;;5087406;28;20035;-68
2023/04/03 00:50:38;;;;;;;8.35;3.83;;;3.00;99.90;;;;;;5087438;28;20040;-72
2023/04/03 00:53:04;;;;;;;7.95;4.05;;;3.10;99.90;;;;;;5088427;28;20054;-69
2023/04/03 00:55:31;;;;;;;8.63;4.25;;;3.10;99.90;;;;;;5089186;28;20028;-69
2023/04/03 00:57:57;;;;;;;9.75;4.43;;;3.10;99.90;;;;;;5088838;28;20149;-69
2023/04/03 01:00:24;;;;;;;10.07;4.15;;;3.10;99.90;;;;;;5091737;28;20039;-68
2023/04/03 01:02:51;;;;;;;9.00;4.20;;;3.10;99.90;;;;;;5089070;28;20053;-68
2023/04/03 01:05:18;;;;;;;7.70;4.20;;;3.10;99.90;;;;;;5086905;28;20028;-69
2023/04/03 01:07:45;;;;;;;7.90;4.15;;;3.10;99.90;;;;;;5081533;28;20954;-69
2023/04/03 01:10:14;;;;;;;7.85;3.88;;;3.10;99.90;;;;;;5081817;28;20488;-70
2023/04/03 01:12:41;;;;;;;8.35;3.70;;;3.10;99.90;;;;;;5088631;28;20027;-69
2023/04/03 01:15:14;;;;;;;7.43;3.78;;;3.10;99.90;;;;;;5090593;28;20732;-69
2023/04/03 01:17:50;;;;;;;7.60;3.67;;;3.10;99.90;;;;;;5090530;28;20383;-68
2023/04/03 01:20:35;;;;;;;8.68;3.88;;;3.10;99.90;;;;;;5089008;28;20024;-69
2023/04/03 01:23:09;;;;;;;7.82;4.13;;;3.20;99.90;;;;;;5090640;28;20059;-70
2023/04/03 01:25:56;;;;;;;7.07;3.53;;;3.10;99.90;;;;;;5089720;28;20020;-72
2023/04/03 01:28:35;;;;;;;7.03;3.85;;;3.10;99.90;;;;;;5090831;28;20127;-69
2023/04/03 01:31:16;;;;;;;7.68;3.53;;;3.20;99.90;;;;;;5089144;28;20035;-70
2023/04/03 01:33:42;;;;;;;8.10;3.67;;;3.20;99.90;;;;;;5089696;28;20031;-69
2023/04/03 01:36:09;;;;;;;10.38;3.60;;;3.20;99.90;;;;;;5090875;28;20402;-69
2023/04/03 01:38:35;;;;;;;8.90;3.83;;;3.20;99.90;;;;;;5088543;28;20093;-70
2023/04/03 01:41:00;;;;;;;8.15;3.85;;;3.20;99.90;;;;;;5086765;28;20033;-69
2023/04/03 01:43:26;;;;;;;7.07;3.90;;;3.30;99.90;;;;;;5071558;28;20357;-70
2023/04/03 01:45:54;;;;;;;9.88;4.25;;;3.20;99.90;;;;;;5090019;28;20020;-68
2023/04/03 01:48:20;;;;;;;11.43;4.00;;;3.20;99.90;;;;;;5089930;28;20494;-69
2023/04/03 01:50:46;;;;;;;7.25;3.22;;;3.20;99.90;;;;;;5088731;28;20030;-68
2023/04/03 01:53:11;;;;;;;8.48;3.80;;;3.20;99.90;;;;;;5088630;28;20098;-69
2023/04/03 01:55:37;;;;;;;7.88;4.03;;;3.20;99.90;;;;;;5090396;28;20359;-73
2023/04/03 01:58:03;;;;;;;7.15;3.58;;;3.20;99.90;;;;;;5089308;28;20539;-67
2023/04/03 02:00:28;;;;;;;7.25;3.90;;;3.20;99.90;;;;;;5089697;28;20036;-69
2023/04/03 02:02:54;;;;;;;7.13;3.75;;;3.20;99.90;;;;;;5089793;28;20077;-69
2023/04/03 02:05:20;;;;;;;9.27;3.85;;;3.20;99.90;;;;;;5089790;28;20028;-69
2023/04/03 02:07:45;;;;;;;9.02;3.47;;;3.20;99.90;;;;;;5088460;28;20039;-70
2023/04/03 02:10:12;;;;;;;6.03;3.58;;;3.10;99.90;;;;;;5088336;28;20074;-70
2023/04/03 02:12:37;;;;;;;6.07;3.30;;;3.10;99.90;;;;;;5086150;28;20024;-72
2023/04/03 02:15:03;;;;;;;8.90;3.75;;;3.10;99.90;;;;;;5088035;28;20104;-69
2023/04/03 02:17:29;;;;;;;9.65;3.88;;;3.10;99.90;;;;;;5089285;28;20063;-69
2023/04/03 02:19:55;;;;;;;6.03;3.50;;;3.10;99.90;;;;;;5085062;28;20047;-69
2023/04/03 02:22:20;;;;;;;9.75;3.70;;;3.20;99.90;;;;;;5087117;28;20032;-69
2023/04/03 02:24:46;;;;;;;9.35;3.45;;;3.10;99.90;;;;;;5078783;28;20043;-70
2023/04/03 02:27:12;;;;;;;6.75;3.47;;;3.10;99.90;;;;;;5082602;28;20044;-69
2023/04/03 02:29:38;;;;;;;9.77;3.72;;;3.20;99.90;;;;;;5082511;28;20036;-72
2023/04/03 02:32:04;;;;;;;6.10;3.53;;;3.20;99.90;;;;;;5082672;28;20043;-69
2023/04/03 02:34:30;;;;;;;6.90;3.70;;;3.10;99.90;;;;;;5081468;28;20088;-69
2023/04/03 02:36:56;;;;;;;6.57;3.60;;;3.10;99.90;;;;;;5079996;28;20028;-69
2023/04/03 02:39:21;;;;;;;8.70;4.20;;;3.00;99.90;;;;;;5068745;28;20032;-69
2023/04/03 02:41:47;;;;;;;8.52;3.60;;;3.00;99.90;;;;;;5082095;28;20107;-68
2023/04/03 02:44:13;;;;;;;12.98;4.15;;;2.90;99.90;;;;;;5081444;28;20024;-68
2023/04/03 02:46:38;;;;;;;7.50;3.67;;;2.90;99.90;;;;;;5081674;28;20028;-69
2023/04/03 02:49:04;;;;;;;6.82;3.40;;;2.90;99.90;;;;;;5075823;28;20036;-73
2023/04/03 02:51:30;;;;;;;7.32;3.60;;;2.90;99.90;;;;;;5080919;28;20040;-68
2023/04/03 02:53:56;;;;;;;7.05;3.78;;;2.90;99.90;;;;;;5082330;28;20623;-69
2023/04/03 02:56:21;;;;;;;7.80;3.63;;;2.90;99.90;;;;;;5085396;28;20028;-69
2023/04/03 02:58:47;;;;;;;6.95;3.30;;;3.00;99.90;;;;;;5067930;28;20039;-69
2023/04/03 03:01:13;;;;;;;7.32;3.63;;;3.00;99.90;;;;;;5083223;28;20028;-68
2023/04/03 03:03:39;;;;;;;8.27;3.78;;;3.00;99.90;;;;;;5088811;28;20039;-69
2023/04/03 03:06:16;;;;;;;7.72;3.90;;;3.10;99.90;;;;;;5086534;28;20767;-69
2023/04/03 03:08:42;;;;;;;8.15;3.78;;;3.00;99.90;;;;;;5088928;28;20036;-73
2023/04/03 03:11:08;;;;;;;7.63;3.88;;;2.90;99.90;;;;;;5086468;28;20032;-69
2023/04/03 03:13:34;;;;;;;7.65;4.28;;;3.00;99.90;;;;;;5087960;28;20035;-69
2023/04/03 03:16:00;;;;;;;9.02;3.92;;;3.00;99.90;;;;;;5069082;28;20023;-69
2023/04/03 03:18:26;;;;;;;8.88;3.50;;;3.00;99.90;;;;;;5089190;28;20035;-69
2023/04/03 03:20:53;;;;;;;6.78;3.80;;;3.00;99.90;;;;;;5086947;28;20028;-69
2023/04/03 03:23:19;;;;;;;9.45;3.75;;;3.00;99.90;;;;;;5089060;28;20108;-68
2023/04/03 03:25:44;;;;;;;6.80;3.90;;;3.00;99.90;;;;;;5087767;28;20121;-72
2023/04/03 03:28:11;;;;;;;9.90;3.63;;;3.00;99.90;;;;;;5087787;28;20159;-68
2023/04/03 03:30:37;;;;;;;7.00;3.83;;;3.00;99.90;;;;;;5086700;28;20102;-69
2023/04/03 03:33:03;;;;;;;6.70;3.60;;;3.00;99.90;;;;;;5088200;28;20103;-68
2023/04/03 03:35:29;;;;;;;8.70;3.92;;;3.10;99.90;;;;;;5087526;28;20099;-69
2023/04/03 03:37:54;;;;;;;6.90;3.88;;;3.10;99.90;;;;;;5087741;28;20337;-68
2023/04/03 03:40:20;;;;;;;8.77;3.72;;;3.10;99.90;;;;;;5087893;28;20067;-68
2023/04/03 03:42:46;;;;;;;7.03;3.55;;;3.20;99.90;;;;;;5087552;28;20046;-72
2023/04/03 03:45:11;;;;;;;6.75;3.35;;;3.10;99.90;;;;;;5087859;28;20067;-69
2023/04/03 03:47:37;;;;;;;8.27;3.60;;;3.10;99.90;;;;;;5069635;28;20170;-69
2023/04/03 03:50:03;;;;;;;7.32;3.80;;;3.10;99.90;;;;;;5087089;28;20876;-67
2023/04/03 03:52:30;;;;;;;9.57;3.65;;;3.10;99.90;;;;;;5088711;28;20098;-69
2023/04/03 03:54:55;;;;;;;6.57;3.40;;;3.10;99.90;;;;;;5086520;28;20020;-68
2023/04/03 03:57:21;;;;;;;8.98;3.58;;;3.10;99.90;;;;;;5088433;28;20086;-72
2023/04/03 03:59:48;;;;;;;6.32;3.58;;;3.10;99.90;;;;;;5083304;28;20036;-73
2023/04/03 04:02:14;;;;;;;5.85;3.13;;;3.00;99.90;;;;;;5091993;28;20020;-68
2023/04/03 04:04:40;;;;;;;6.78;3.30;;;3.00;99.90;;;;;;5089982;28;20019;-68
2023/04/03 04:07:06;;;;;;;5.45;3.30;;;2.90;99.90;;;;;;5072758;28;20372;-69
2023/04/03 04:09:31;;;;;;;6.72;3.72;;;2.90;99.90;;;;;;5090717;28;20505;-69
2023/04/03 04:11:57;;;;;;;6.43;3.13;;;2.90;99.90;;;;;;5091458;28;20414;-68
2023/04/03 04:14:23;;;;;;;6.05;3.28;;;2.80;99.90;;;;;;5091395;28;20016;-69
2023/04/03 04:16:48;;;;;;;5.90;3.17;;;2.70;99.90;;;;;;5089480;28;20052;-72
2023/04/03 04:19:14;;;;;;;6.47;2.92;;;2.80;99.90;;;;;;5091434;28;20046;-68
2023/04/03 04:21:41;;;;;;;5.70;3.15;;;2.80;99.90;;;;;;5092296;28;20035;-67
2023/04/03 04:24:07;;;;;;;9.15;3.30;;;2.80;99.90;;;;;;5091364;28;20012;-69
2023/04/03 04:26:33;;;;;;;6.88;3.33;;;2.80;99.90;;;;;;5092141;28;20047;-68
2023/04/03 04:28:59;;;;;;;5.88;3.60;;;2.80;99.90;;;;;;5090769;28;20451;-69
2023/04/03 04:31:25;;;;;;;6.50;3.20;;;2.70;99.90;;;;;;5090975;28;20028;-69
2023/04/03 04:33:51;;;;;;;7.82;3.40;;;2.70;99.90;;;;;;5072477;28;20150;-69
2023/04/03 04:36:16;;;;;;;7.82;3.13;;;2.50;99.90;;;;;;5092202;28;20448;-69
2023/04/03 04:38:42;;;;;;;6.80;3.08;;;2.50;99.90;;;;;;5072065;28;20024;-68
2023/04/03 04:41:08;;;;;;;7.35;3.47;;;2.50;99.90;;;;;;5087838;28;20597;-69
2023/04/03 04:43:34;;;;;;;6.75;3.42;;;2.40;99.90;;;;;;5091271;28;20024;-70
2023/04/03 04:46:08;;;;;;;7.10;3.30;;;2.30;99.90;;;;;;5090705;28;20078;-68
2023/04/03 04:48:35;;;;;;;5.97;3.13;;;2.40;99.90;;;;;;5090072;28;20063;-68
2023/04/03 04:51:01;;;;;;;6.07;3.22;;;2.30;99.90;;;;;;5072969;28;20119;-68
2023/04/03 04:53:26;;;;;;;6.38;3.33;;;2.30;99.90;;;;;;5088408;28;20439;-69
2023/04/03 04:55:52;;;;;;;7.25;3.60;;;2.20;99.90;;;;;;5078553;28;20134;-69
2023/04/03 04:58:21;;;;;;;5.82;3.28;;;2.20;99.90;;;;;;5086588;28;20039;-68
2023/04/03 05:00:47;;;;;;;5.07;3.10;;;2.20;99.90;;;;;;5091663;28;20032;-69
2023/04/03 05:03:13;;;;;;;7.10;3.28;;;2.20;99.90;;;;;;5085694;28;20030;-68
2023/04/03 05:05:39;;;;;;;6.78;3.20;;;2.20;99.90;;;;;;5091267;28;20028;-68
2023/04/03 05:08:04;;;;;;;7.32;3.30;;;2.10;99.90;;;;;;5089571;28;20069;-68
2023/04/03 05:10:31;;;;;;;6.22;3.40;;;2.10;99.90;;;;;;5089903;28;21628;-69
2023/04/03 05:12:57;;;;;;;6.85;3.30;;;2.10;99.90;;;;;;5081884;28;20021;-69
2023/04/03 05:15:22;;;;;;;7.53;3.47;;;2.10;99.90;;;;;;5072648;28;20357;-68
2023/04/03 05:17:48;;;;;;;5.75;3.25;;;2.10;99.90;;;;;;5090045;28;20027;-71
2023/04/03 05:20:14;;;;;;;6.97;3.60;;;2.10;99.90;;;;;;5090908;28;20436;-68
2023/04/03 05:22:40;;;;;;;10.40;4.20;;;2.10;99.90;;;;;;5090649;28;20020;-68
2023/04/03 05:25:06;;;;;;;6.63;3.63;;;2.10;99.90;;;;;;5089551;28;20052;-68
2023/04/03 05:27:32;;;;;;;9.15;3.97;;;2.10;99.90;;;;;;5089648;28;20044;-68
2023/04/03 05:29:57;;;;;;;9.18;4.00;;;2.20;99.90;;;;;;5090091;28;20032;-68
2023/04/03 05:32:24;;;;;;;9.43;4.20;;;2.20;99.90;;;;;;5087933;28;20335;-68
2023/04/03 05:34:50;;;;;;;8.70;3.97;;;2.20;99.90;;;;;;5070419;28;20031;-71
2023/04/03 05:37:17;;;;;;;8.75;4.30;;;2.20;99.90;;;;;;5057083;28;20024;-70
2023/04/03 05:39:42;;;;;;;8.55;3.78;;;2.20;99.90;;;;;;5090355;28;20071;-68
2023/04/03 05:42:08;;;;;;;8.73;3.65;;;2.30;99.90;;;;;;5088544;28;20702;-68
2023/04/03 05:44:34;;;;;;;6.40;3.50;;;2.30;99.90;;;;;;5088961;28;20086;-68
2023/04/03 05:47:00;;;;;;;7.38;3.60;;;2.30;99.90;;;;;;5088303;28;20028;-69
2023/04/03 05:49:26;;;;;;;6.60;3.35;;;2.20;99.90;;;;;;5090009;28;20431;-69
2023/04/03 05:51:52;;;;;;;8.73;3.70;;;2.20;99.90;;;;;;5090421;28;20123;-72
2023/04/03 05:54:30;;;;;;;10.25;4.30;;;2.20;99.90;;;;;;5077500;28;20082;-69
2023/04/03 05:56:55;;;;;;;7.32;3.78;;;2.20;99.90;;;;;;5088142;28;20059;-68
2023/04/03 05:59:21;;;;;;;8.70;3.70;;;2.20;99.90;;;;;;5069982;28;20471;-70
2023/04/03 06:01:47;;;;;;;14.60;4.13;;;2.30;99.90;;;;;;5089212;28;20032;-67
2023/04/03 06:04:13;;;;;;;6.68;3.63;;;2.30;99.90;;;;;;5087312;28;20016;-66
2023/04/03 06:06:43;;;;;;;7.43;3.88;;;2.30;99.90;;;;;;5087154;28;20020;-68
2023/04/03 06:09:09;;;;;;;9.23;4.05;;;2.30;99.90;;;;;;5053105;28;20033;-68
2023/04/03 06:11:35;;;;;;;8.15;4.22;;;2.40;99.90;;;;;;5078186;28;20036;-66
2023/04/03 06:14:01;;;;;;;8.80;4.25;;;2.40;99.90;;;;;;5082977;28;20035;-69
2023/04/03 06:16:26;;;;;;;8.68;4.15;;;2.40;99.90;;;;;;5082580;28;20028;-70
2023/04/03 06:18:52;;;;;;;9.45;3.88;;;2.40;99.90;;;;;;5082870;28;20032;-72
2023/04/03 06:21:18;;;;;;;7.35;3.53;;;2.40;99.90;;;;;;5087548;28;20028;-68
2023/04/03 06:23:43;;;;;;;8.48;3.80;;;2.50;99.90;;;;;;5089142;28;20028;-67
2023/04/03 06:26:09;;;;;;;10.10;3.60;;;2.50;99.90;;;;;;5078871;28;20052;-68
2023/04/03 06:28:34;;;;;;;9.70;3.90;;;2.50;99.90;;;;;;5079412;28;20526;-66
2023/04/03 06:31:00;;;;;;;9.32;3.85;;;2.50;99.90;;;;;;5088210;28;20040;-66
2023/04/03 06:33:26;;;;;;;10.68;3.80;;;2.50;99.90;;;;;;5077760;28;20032;-68
2023/04/03 06:35:57;;;;;;;7.43;3.53;;;2.50;99.90;;;;;;5075019;28;20028;-68
2023/04/03 06:38:22;;;;;;;7.32;4.00;;;2.50;99.90;;;;;;5081536;28;20341;-63
2023/04/03 06:40:48;;;;;;;11.70;4.93;;;2.50;99.90;;;;;;5087943;28;20032;-63
2023/04/03 06:43:13;;;;;;;9.02;4.22;;;2.60;99.90;;;;;;5081112;28;20091;-63
2023/04/03 06:45:39;;;;;;;9.30;4.15;;;2.60;99.90;;;;;;5084583;28;20016;-63
2023/04/03 06:48:05;;;;;;;12.70;4.30;;;2.60;99.90;;;;;;5081478;28;20028;-63
2023/04/03 06:50:31;;;;;;;7.80;4.40;;;2.70;99.90;;;;;;5089279;28;20032;-64
2023/04/03 06:52:57;;;;;;;9.65;3.97;;;2.70;99.90;;;;;;5087151;28;20057;-68
2023/04/03 06:55:22;;;;;;;10.68;4.32;;;2.80;99.90;;;;;;5084619;28;20464;-63
2023/04/03 06:57:48;;;;;;;12.07;4.40;;;2.80;99.90;;;;;;5077131;28;20033;-63
2023/04/03 07:00:14;;;;;;;12.25;4.45;;;2.80;99.90;;;;;;5068380;28;20086;-64
2023/04/03 07:02:40;;;;;;;9.32;4.07;;;2.80;99.90;;;;;;5073872;28;20027;-62
2023/04/03 07:05:06;;;;;;;11.55;4.75;;;2.80;99.90;;;;;;5088482;28;20074;-64
2023/04/03 07:07:33;;;;;;;11.27;4.25;;;2.80;99.90;;;;;;5084695;28;20027;-63
2023/04/03 07:10:00;;;;;;;13.63;5.15;;;3.00;99.90;;;;;;5067010;28;20432;-64
2023/04/03 07:12:26;;;;;;;12.63;4.10;;;2.90;99.90;;;;;;5083707;28;20457;-64
2023/04/03 07:14:51;;;;;;;10.63;4.13;;;3.00;99.90;;;;;;5086576;28;20039;-64
2023/04/03 07:17:17;;;;;;;11.10;4.30;;;3.00;99.90;;;;;;5084413;28;20909;-64
2023/04/03 07:19:43;;;;;;;13.60;5.63;;;3.10;99.90;;;;;;5079753;28;20030;-63
2023/04/03 07:22:09;;;;;;;10.75;5.07;;;3.30;99.90;;;;;;5081707;28;20222;-62
2023/04/03 07:24:34;;;;;;;13.75;4.85;;;3.50;99.90;;;;;;5084335;28;20463;-64
2023/04/03 07:27:01;;;;;;;11.57;5.00;;;3.60;99.90;;;;;;5083257;28;20055;-69
2023/04/03 07:29:27;;;;;;;8.98;4.80;;;3.60;99.90;;;;;;5085000;28;20058;-66
2023/04/03 07:31:53;;;;;;;10.43;4.50;;;3.60;99.90;;;;;;5088983;28;20020;-64
2023/04/03 07:34:18;;;;;;;9.25;4.53;;;3.70;99.90;;;;;;5088135;28;20223;-64
2023/04/03 07:36:44;;;;;;;10.43;4.03;;;3.80;99.90;;;;;;5088784;28;20102;-65
2023/04/03 07:39:10;;;;;;;11.15;4.50;;;3.90;99.90;;;;;;5085438;28;20112;-64
2023/04/03 07:41:36;;;;;;;10.95;4.82;;;3.90;99.90;;;;;;5086919;28;20031;-65
2023/04/03 07:44:02;;;;;;;8.48;4.40;;;4.00;99.90;;;;;;5088074;28;20061;-64
2023/04/03 07:46:28;;;;;;;11.45;4.75;;;4.20;99.90;;;;;;5088809;28;20020;-64
2023/04/03 07:48:54;;;;;;;11.88;4.70;;;4.40;99.90;;;;;;5088794;28;20364;-66
2023/04/03 07:51:20;;;;;;;10.32;4.60;;;4.40;99.90;;;;;;5087655;28;20859;-64
2023/04/03 07:53:45;;;;;;;14.45;5.50;;;4.20;99.90;;;;;;5088809;28;20028;-65
2023/04/03 07:56:11;;;;;;;13.25;5.13;;;4.10;99.90;;;;;;5086976;28;20032;-64
2023/04/03 07:58:37;;;;;;;14.77;6.05;;;4.20;99.90;;;;;;5088395;28;20050;-65
2023/04/03 08:01:03;;;;;;;14.82;5.32;;;4.30;99.90;;;;;;5087939;28;20032;-64
2023/04/03 08:03:29;;;;;;;12.95;5.15;;;4.50;99.90;;;;;;5088513;28;20528;-65
2023/04/03 08:06:01;;;;;;;14.90;5.25;;;4.70;99.90;;;;;;5088714;28;20153;-64
2023/04/03 08:08:29;;;;;;;14.38;6.15;;;4.70;99.90;;;;;;5088510;28;20027;-65
2023/04/03 08:10:59;;;;;;;9.90;5.38;;;4.60;99.90;;;;;;5087730;28;20072;-64
2023/04/03 08:13:24;;;;;;;11.25;5.43;;;4.60;99.90;;;;;;5069955;28;20051;-64
2023/04/03 08:15:50;;;;;;;15.18;6.10;;;4.60;99.90;;;;;;5088523;28;20060;-64
2023/04/03 08:18:16;;;;;;;16.38;7.35;;;4.70;99.90;;;;;;5088090;28;20563;-65
2023/04/03 08:20:42;;;;;;;12.02;6.10;;;4.80;99.90;;;;;;5088601;28;20052;-65
2023/04/03 08:23:09;;;;;;;10.75;6.22;;;4.60;99.90;;;;;;5087633;28;20032;-64
2023/04/03 08:25:39;;;;;;;13.90;5.93;;;4.40;99.90;;;;;;5087660;28;20032;-64
2023/04/03 08:28:05;;;;;;;12.57;6.13;;;4.20;99.90;;;;;;5069118;28;20044;-64
2023/04/03 08:30:31;;;;;;;12.15;6.43;;;4.30;99.90;;;;;;5088389;28;20040;-66
2023/04/03 08:32:56;;;;;;;12.48;5.90;;;4.40;99.90;;;;;;5088560;28;20574;-65
2023/04/03 08:35:22;;;;;;;15.00;5.28;;;4.40;99.90;;;;;;5087676;28;20035;-65
2023/04/03 08:37:47;;;;;;;10.88;5.20;;;4.40;99.90;;;;;;5088662;28;20093;-65
2023/04/03 08:40:16;;;;;;;11.63;4.85;;;4.50;99.90;;;;;;5067489;28;20103;-64
2023/04/03 08:42:51;;;;;;;10.07;5.30;;;4.50;99.90;;;;;;5088124;28;20028;-65
2023/04/03 08:45:40;;;;;;;10.45;5.53;;;4.40;99.90;;;;;;5087496;28;20032;-66
2023/04/03 08:48:20;;;;;;;19.27;7.43;;;4.50;99.90;;;;;;5073762;28;20040;-66
2023/04/03 08:50:51;;;;;;;23.10;7.90;;;4.70;99.90;;;;;;5072885;28;20039;-64
2023/04/03 08:53:28;;;;;;;17.77;6.70;;;4.80;99.90;;;;;;5091153;28;20024;-65
2023/04/03 08:55:55;;;;;;;10.30;4.97;;;4.80;99.90;;;;;;5091999;28;20058;-66
2023/04/03 08:58:36;;;;;;;8.07;4.15;;;4.80;99.90;;;;;;5089520;28;20550;-66
2023/04/03 09:01:22;;;;;;;12.13;4.75;;;4.90;99.90;;;;;;5091499;28;20032;-70
2023/04/03 09:03:48;;;;;;;15.73;6.55;;;5.00;99.90;;;;;;5091720;28;20348;-65
2023/04/03 09:06:32;;;;;;;11.82;4.82;;;5.10;99.90;;;;;;5091073;28;20032;-65
2023/04/03 09:09:10;;;;;;;7.45;4.35;;;5.00;99.90;;;;;;5091211;28;20464;-65
2023/04/03 09:12:09;;;;;;;11.10;5.30;;;4.90;99.90;;;;;;5091648;28;20089;-66
2023/04/03 09:14:53;;;;;;;8.82;4.20;;;4.90;99.90;;;;;;5071304;28;20107;-65
2023/04/03 09:17:40;;;;;;;14.38;6.40;;;5.10;99.90;;;;;;5070337;28;20033;-65
2023/04/03 09:20:18;;;;;;;10.80;4.60;;;5.00;99.90;;;;;;5052338;28;20535;-69
2023/04/03 09:22:44;;;;;;;10.85;4.70;;;4.80;99.90;;;;;;5053162;28;20449;-65
2023/04/03 09:25:33;;;;;;;6.65;3.90;;;5.00;99.90;;;;;;5070154;28;20020;-64
2023/04/03 09:28:01;;;;;;;8.20;3.90;;;5.00;99.90;;;;;;5082657;28;20079;-65
2023/04/03 09:30:27;;;;;;;6.40;3.47;;;5.00;99.90;;;;;;5090054;28;20052;-66
2023/04/03 09:32:56;;;;;;;6.85;3.67;;;5.00;99.90;;;;;;5091246;28;20027;-65
2023/04/03 09:35:31;;;;;;;7.50;4.15;;;4.90;99.90;;;;;;5090292;28;20487;-66
2023/04/03 09:38:21;;;;;;;14.00;5.97;;;4.80;99.90;;;;;;5062001;28;20023;-67
2023/04/03 09:41:03;;;;;;;8.70;4.30;;;5.00;99.90;;;;;;5074578;28;20040;-65
2023/04/03 09:43:34;;;;;;;9.15;3.88;;;4.90;99.90;;;;;;5090597;28;20032;-65
2023/04/03 09:46:39;;;;;;;8.38;3.58;;;5.00;99.90;;;;;;5091010;28;20016;-65
2023/04/03 09:49:10;;;;;;;8.05;3.53;;;5.00;99.90;;;;;;5090433;28;20115;-69
2023/04/03 09:51:37;;;;;;;10.45;3.22;;;5.20;99.90;;;;;;5091192;28;20024;-65
2023/04/03 09:54:38;;;;;;;6.75;3.35;;;5.20;99.90;;;;;;5090733;28;20020;-65
2023/04/03 09:57:11;;;;;;;7.50;3.22;;;5.40;99.90;;;;;;5089851;28;20024;-69
2023/04/03 09:59:42;;;;;;;9.15;3.70;;;5.20;99.90;;;;;;5090391;28;20075;-66
2023/04/03 10:02:30;;;;;;;8.35;2.97;;;5.20;99.90;;;;;;5089793;28;20526;-69
2023/04/03 10:04:57;;;;;;;7.30;3.50;;;5.40;99.90;;;;;;5071604;28;20469;-67
2023/04/03 10:07:27;;;;;;;8.10;3.75;;;5.50;99.90;;;;;;5089525;28;20020;-65
2023/04/03 10:10:17;;;;;;;5.65;3.03;;;5.60;99.90;;;;;;5090368;28;20024;-65
2023/04/03 10:12:43;;;;;;;8.98;3.92;;;5.50;99.90;;;;;;5090460;28;20034;-65
2023/04/03 10:15:14;;;;;;;8.38;3.42;;;5.40;99.90;;;;;;5089312;28;20024;-69
2023/04/03 10:17:48;;;;;;;8.68;3.75;;;5.40;99.90;;;;;;5090148;28;20050;-65
2023/04/03 10:20:26;;;;;;;12.55;4.80;;;5.40;99.90;;;;;;5086242;28;20032;-65
2023/04/03 10:23:00;;;;;;;7.88;3.08;;;5.30;99.90;;;;;;5088098;28;20031;-66
2023/04/03 10:25:26;;;;;;;6.38;2.70;;;5.30;99.90;;;;;;5089503;28;20736;-66
2023/04/03 10:28:12;;;;;;;5.68;2.58;;;5.20;99.90;;;;;;5089587;28;20128;-65
2023/04/03 10:30:44;;;;;;;7.50;2.85;;;5.10;99.90;;;;;;5088294;28;20149;-65
2023/04/03 10:33:22;;;;;;;6.45;3.72;;;5.10;99.90;;;;;;5089391;28;20062;-69
2023/04/03 10:36:00;;;;;;;5.93;3.60;;;5.20;99.90;;;;;;5089950;28;20020;-64
2023/04/03 10:38:46;;;;;;;5.93;2.80;;;5.40;99.90;;;;;;5086596;28;20345;-65
2023/04/03 10:41:26;;;;;;;7.07;3.10;;;5.40;99.90;;;;;;5088863;28;20020;-65
2023/04/03 10:44:03;;;;;;;6.35;3.05;;;5.40;99.90;;;;;;5089714;28;20434;-65
2023/04/03 10:46:43;;;;;;;9.15;3.40;;;5.30;99.90;;;;;;5089213;28;20038;-64
2023/04/03 10:49:22;;;;;;;8.60;3.80;;;5.30;99.90;;;;;;5089210;28;20081;-69
2023/04/03 10:51:56;;;;;;;8.32;5.00;;;5.40;99.90;;;;;;5089459;28;20817;-66
2023/04/03 10:54:31;;;;;;;5.10;3.35;;;5.40;99.90;;;;;;5087595;28;20464;-65
2023/04/03 10:57:03;;;;;;;7.43;2.60;;;5.70;99.90;;;;;;5089412;28;20020;-67
2023/04/03 10:59:34;;;;;;;10.43;2.78;;;5.70;99.90;;;;;;5087813;28;20047;-65
2023/04/03 11:02:06;;;;;;;6.28;2.83;;;5.80;99.90;;;;;;5071210;28;20053;-65
2023/04/03 11:04:36;;;;;;;6.97;3.45;;;5.90;99.90;;;;;;5070366;28;20030;-66
2023/04/03 11:07:14;;;;;;;7.43;3.78;;;6.00;99.90;;;;;;5089041;28;20350;-65
2023/04/03 11:09:43;;;;;;;4.88;2.47;;;5.90;99.90;;;;;;5089149;28;20043;-65
2023/04/03 11:12:27;;;;;;;5.90;2.78;;;6.00;99.90;;;;;;5088603;28;20028;-70
2023/04/03 11:14:56;;;;;;;6.00;3.00;;;6.20;99.90;;;;;;5069835;28;20097;-65
2023/04/03 11:17:30;;;;;;;7.90;3.17;;;6.40;99.90;;;;;;5088381;28;20038;-66
2023/04/03 11:20:28;;;;;;;4.90;2.70;;;6.40;99.90;;;;;;5089464;28;20030;-65
2023/04/03 11:23:04;;;;;;;6.30;2.90;;;6.50;99.90;;;;;;5089030;28;20028;-65
2023/04/03 11:25:34;;;;;;;6.35;2.50;;;6.60;99.90;;;;;;5088054;28;20599;-64
2023/04/03 11:28:06;;;;;;;4.68;2.58;;;6.80;99.90;;;;;;5088842;28;20044;-65
2023/04/03 11:30:40;;;;;;;7.00;2.83;;;6.60;99.90;;;;;;5068998;28;20556;-64
2023/04/03 11:33:15;;;;;;;4.55;2.45;;;6.60;99.90;;;;;;5062924;28;20032;-66
2023/04/03 11:35:51;;;;;;;6.78;2.65;;;6.70;99.90;;;;;;5068624;28;20024;-65
2023/04/03 11:38:29;;;;;;;7.18;2.58;;;6.30;99.90;;;;;;5081736;28;20024;-66
2023/04/03 11:40:56;;;;;;;7.05;2.70;;;6.30;99.90;;;;;;5088952;28;20024;-65
2023/04/03 11:43:28;;;;;;;5.60;2.38;;;6.30;99.90;;;;;;5069774;28;20028;-65
2023/04/03 11:46:00;;;;;;;8.48;2.90;;;6.50;99.90;;;;;;5087876;28;20115;-66
2023/04/03 11:48:32;;;;;;;5.75;2.78;;;6.80;99.90;;;;;;5087935;28;20023;-65
2023/04/03 11:51:22;;;;;;;5.22;2.33;;;6.80;99.90;;;;;;5088788;28;20023;-65
2023/04/03 11:53:48;;;;;;;4.18;2.33;;;6.50;99.90;;;;;;5088566;28;20487;-65
2023/04/03 11:56:26;;;;;;;6.53;2.70;;;6.70;99.90;;;;;;5088127;28;20028;-69
2023/04/03 11:59:10;;;;;;;4.38;2.47;;;6.60;99.90;;;;;;5087705;28;20020;-65
2023/04/03 12:01:46;;;;;;;9.57;2.92;;;6.70;99.90;;;;;;5078453;28;20551;-66
2023/04/03 12:04:15;;;;;;;6.72;3.00;;;6.70;99.90;;;;;;5088511;28;20055;-69
2023/04/03 12:06:42;;;;;;;5.90;2.63;;;6.60;99.90;;;;;;5088589;28;20024;-66
2023/04/03 12:09:33;;;;;;;5.75;2.75;;;6.70;99.90;;;;;;5088610;28;20047;-65
2023/04/03 12:12:01;;;;;;;7.82;2.85;;;6.60;99.90;;;;;;5088465;28;20093;-65
2023/04/03 12:14:28;;;;;;;5.95;2.92;;;6.70;99.90;;;;;;5087795;28;20064;-66
2023/04/03 12:16:57;;;;;;;7.18;3.00;;;6.70;99.90;;;;;;5087828;28;20028;-64
2023/04/03 12:19:43;;;;;;;5.93;3.05;;;7.00;99.90;;;;;;5087850;28;20031;-65
2023/04/03 12:22:20;;;;;;;7.20;2.90;;;7.60;99.90;;;;;;5072396;28;20028;-66
2023/04/03 12:24:49;;;;;;;7.03;2.80;;;8.10;99.90;;;;;;5092549;28;20028;-67
2023/04/03 12:27:48;;;;;;;7.18;2.88;;;8.50;99.90;;;;;;5091818;28;20066;-70
2023/04/03 12:30:30;;;;;;;5.30;2.97;;;8.20;99.90;;;;;;5090001;28;20052;-69
2023/04/03 12:33:19;;;;;;;7.93;3.00;;;8.50;99.90;;;;;;5092397;28;20093;-65
2023/04/03 12:36:03;;;;;;;7.30;3.05;;;8.40;99.90;;;;;;5066470;28;20068;-66
2023/04/03 12:39:03;;;;;;;6.53;2.40;;;8.20;99.90;;;;;;5091418;28;20539;-66
2023/04/03 12:41:42;;;;;;;8.57;3.20;;;8.20;99.90;;;;;;5090550;28;20067;-67
2023/04/03 12:44:40;;;;;;;4.57;2.60;;;8.60;99.90;;;;;;5092010;28;20259;-65
2023/04/03 12:47:32;;;;;;;6.97;3.20;;;8.60;99.70;;;;;;5071967;28;20035;-66
2023/04/03 12:49:59;;;;;;;9.80;3.05;;;8.40;99.90;;;;;;5053731;28;20376;-66
2023/04/03 12:52:39;;;;;;;8.98;3.08;;;7.90;99.80;;;;;;5070730;28;20059;-65
2023/04/03 12:55:15;;;;;;;5.60;3.00;;;7.40;98.70;;;;;;5071822;28;20091;-65
2023/04/03 12:57:40;;;;;;;5.63;2.92;;;7.00;99.80;;;;;;5070945;28;20033;-65
2023/04/03 13:00:39;;;;;;;7.53;3.30;;;6.90;99.90;;;;;;5086150;28;20042;-65
2023/04/03 13:03:19;;;;;;;5.57;2.53;;;6.60;99.90;;;;;;5036436;28;20032;-64
2023/04/03 13:05:45;;;;;;;4.03;1.87;;;6.50;99.90;;;;;;5091818;28;20012;-65
2023/04/03 13:08:15;;;;;;;7.30;2.70;;;6.30;99.90;;;;;;5073251;28;20024;-67
2023/04/03 13:11:03;;;;;;;6.87;3.37;;;6.30;99.90;;;;;;5091007;28;20464;-65